Time;durP1;ratioP1;P1;durP2;ratioP2;P2;SDS_P1;SDS_P2;PMS_P1;PMS_P2;Temp;Humidity;BMP_temperature;BMP_pressure;BME280_temperature;BME280_humidity;BME280_pressure;Samples;Min_cycle;Max_cycle;Signal;HPM_P1;HPM_P2
2022/05/14 00:01:19;;;;;;;10.27;2.97;;;;;;;;;;5066117;28;20041;-72
2022/05/14 00:03:46;;;;;;;11.63;2.90;;;;;;;;;;5064976;28;20055;-72
2022/05/14 00:06:14;;;;;;;9.43;2.83;;;;;;;;;;5066332;28;20053;-73
2022/05/14 00:08:40;;;;;;;11.75;3.22;;;;;;;;;;5064914;28;20041;-71
2022/05/14 00:13:51;;;;;;;11.55;2.92;;;;;;;;;;5065006;28;20415;-71
2022/05/14 00:16:18;;;;;;;10.48;3.17;;;;;;;;;;5063942;28;20072;-71
2022/05/14 00:18:44;;;;;;;12.02;3.20;;;;;;;;;;5064168;28;20053;-72
2022/05/14 00:21:10;;;;;;;12.13;2.95;;;;;;;;;;5064095;28;20144;-71
2022/05/14 00:23:36;;;;;;;14.30;3.20;;;;;;;;;;5062809;28;20111;-72
2022/05/14 00:26:03;;;;;;;16.73;3.55;;;;;;;;;;5054053;28;20509;-72
2022/05/14 00:28:29;;;;;;;12.15;3.35;;;;;;;;;;5066222;28;20052;-72
2022/05/14 00:30:55;;;;;;;11.43;2.85;;;;;;;;;;5057867;28;20044;-72
2022/05/14 00:33:22;;;;;;;15.10;3.17;;;;;;;;;;5065081;28;20041;-72
2022/05/14 00:35:48;;;;;;;12.02;3.08;;;;;;;;;;5061008;28;20073;-72
2022/05/14 00:38:14;;;;;;;11.05;3.13;;;;;;;;;;5063062;28;20052;-72
2022/05/14 00:40:40;;;;;;;13.65;3.53;;;;;;;;;;5042241;28;20041;-72
2022/05/14 00:43:07;;;;;;;11.43;2.95;;;;;;;;;;5062503;28;21590;-71
2022/05/14 00:45:35;;;;;;;11.18;3.10;;;;;;;;;;5062913;28;20116;-71
2022/05/14 00:48:02;;;;;;;13.15;3.63;;;;;;;;;;5029787;28;20051;-72
2022/05/14 00:50:39;;;;;;;14.02;3.55;;;;;;;;;;5062035;28;20052;-70
2022/05/14 00:53:08;;;;;;;12.82;3.15;;;;;;;;;;5062264;28;20041;-71
2022/05/14 00:55:34;;;;;;;13.23;3.35;;;;;;;;;;5060194;28;20104;-71
2022/05/14 00:58:01;;;;;;;14.75;3.42;;;;;;;;;;5064064;28;20048;-72
2022/05/14 01:00:27;;;;;;;10.15;3.10;;;;;;;;;;5065440;28;20107;-72
2022/05/14 01:02:53;;;;;;;12.73;3.35;;;;;;;;;;5046686;28;20044;-72
2022/05/14 01:05:20;;;;;;;12.13;3.30;;;;;;;;;;5061375;28;20037;-71
2022/05/14 01:07:49;;;;;;;13.15;3.30;;;;;;;;;;5061882;28;20037;-71
2022/05/14 01:10:17;;;;;;;14.55;3.55;;;;;;;;;;5062816;28;20045;-72
2022/05/14 01:12:51;;;;;;;13.45;3.28;;;;;;;;;;5045244;28;20052;-72
2022/05/14 01:15:19;;;;;;;13.48;3.30;;;;;;;;;;5061221;28;20068;-71
2022/05/14 01:17:46;;;;;;;14.23;3.22;;;;;;;;;;5062028;28;20044;-72
2022/05/14 01:20:12;;;;;;;10.93;3.35;;;;;;;;;;5061673;28;20040;-72
2022/05/14 01:22:44;;;;;;;10.27;3.50;;;;;;;;;;5060472;28;20033;-72
2022/05/14 01:28:18;;;;;;;12.05;3.10;;;;;;;;;;5038929;28;20042;-72
2022/05/14 01:30:46;;;;;;;15.43;3.92;;;;;;;;;;5015683;28;20042;-71
2022/05/14 01:33:13;;;;;;;12.75;3.38;;;;;;;;;;5037263;28;20049;-72
2022/05/14 01:35:40;;;;;;;14.98;3.28;;;;;;;;;;5022282;28;20077;-72
2022/05/14 01:38:06;;;;;;;13.85;3.78;;;;;;;;;;5025150;28;20044;-72
2022/05/14 01:40:32;;;;;;;17.47;3.67;;;;;;;;;;4987912;28;1042897;-71
2022/05/14 01:42:59;;;;;;;12.27;3.53;;;;;;;;;;5025178;28;20084;-72
2022/05/14 01:45:25;;;;;;;14.43;3.53;;;;;;;;;;5025480;28;20050;-71
2022/05/14 01:47:51;;;;;;;14.05;3.67;;;;;;;;;;5030248;28;20037;-71
2022/05/14 01:50:17;;;;;;;16.33;3.65;;;;;;;;;;5023908;28;20042;-71
2022/05/14 01:52:43;;;;;;;13.55;3.78;;;;;;;;;;5030762;28;20054;-72
2022/05/14 01:55:09;;;;;;;14.43;3.67;;;;;;;;;;5036202;28;20057;-72
2022/05/14 01:57:36;;;;;;;12.63;3.53;;;;;;;;;;5040990;28;20157;-72
2022/05/14 02:00:06;;;;;;;11.38;3.38;;;;;;;;;;5026109;28;20042;-71
2022/05/14 02:02:32;;;;;;;14.05;3.40;;;;;;;;;;5045569;28;20041;-72
2022/05/14 02:04:58;;;;;;;15.88;3.97;;;;;;;;;;5048132;28;20110;-72
2022/05/14 02:07:24;;;;;;;12.88;3.97;;;;;;;;;;5066335;28;20065;-72
2022/05/14 02:09:50;;;;;;;11.70;3.53;;;;;;;;;;5067815;28;20045;-72
2022/05/14 02:12:16;;;;;;;15.05;3.83;;;;;;;;;;5067822;28;20499;-72
2022/05/14 02:14:42;;;;;;;13.02;4.00;;;;;;;;;;5068362;28;20083;-73
2022/05/14 02:17:08;;;;;;;16.25;3.72;;;;;;;;;;5065566;28;20067;-72
2022/05/14 02:19:34;;;;;;;16.85;4.22;;;;;;;;;;5046695;28;20037;-73
2022/05/14 02:22:00;;;;;;;16.40;4.10;;;;;;;;;;5070380;28;20124;-72
2022/05/14 02:24:26;;;;;;;18.02;4.25;;;;;;;;;;5052143;28;20041;-72
2022/05/14 02:26:52;;;;;;;15.90;4.13;;;;;;;;;;5068577;28;20036;-72
2022/05/14 02:29:18;;;;;;;13.98;3.90;;;;;;;;;;5068500;28;20511;-73
2022/05/14 02:31:45;;;;;;;13.13;4.00;;;;;;;;;;5057462;28;20083;-72
2022/05/14 02:34:11;;;;;;;14.00;3.90;;;;;;;;;;5066734;28;20139;-71
2022/05/14 02:36:37;;;;;;;15.90;4.32;;;;;;;;;;5068403;28;20041;-72
2022/05/14 02:39:03;;;;;;;16.63;3.70;;;;;;;;;;5071228;28;20096;-71
2022/05/14 02:41:29;;;;;;;15.93;4.20;;;;;;;;;;5067682;28;20052;-72
2022/05/14 02:43:55;;;;;;;20.17;5.00;;;;;;;;;;5065837;28;20078;-71
2022/05/14 02:46:21;;;;;;;14.43;4.32;;;;;;;;;;5070590;28;20044;-72
2022/05/14 02:48:47;;;;;;;16.85;4.32;;;;;;;;;;5067185;28;20049;-71
2022/05/14 02:51:13;;;;;;;16.75;4.60;;;;;;;;;;5071409;28;20104;-72
2022/05/14 02:53:39;;;;;;;11.73;4.40;;;;;;;;;;5070534;28;20041;-72
2022/05/14 02:56:05;;;;;;;12.50;4.25;;;;;;;;;;5069453;28;20057;-71
2022/05/14 03:01:17;;;;;;;17.77;4.35;;;;;;;;;;5057082;28;20044;-71
2022/05/14 03:03:43;;;;;;;12.55;4.38;;;;;;;;;;5068419;28;20049;-71
2022/05/14 03:06:09;;;;;;;21.45;5.30;;;;;;;;;;5071071;28;20052;-71
2022/05/14 03:08:36;;;;;;;15.70;5.10;;;;;;;;;;5069513;28;20048;-72
2022/05/14 03:11:02;;;;;;;14.10;4.90;;;;;;;;;;5052427;28;20052;-71
2022/05/14 03:13:30;;;;;;;15.85;4.55;;;;;;;;;;5068841;28;20041;-72
2022/05/14 03:15:56;;;;;;;18.17;5.25;;;;;;;;;;5069030;28;20088;-72
2022/05/14 03:18:22;;;;;;;16.60;4.50;;;;;;;;;;5049881;28;20041;-72
2022/05/14 03:20:48;;;;;;;19.20;5.82;;;;;;;;;;5067821;28;20045;-72
2022/05/14 03:23:15;;;;;;;17.13;5.03;;;;;;;;;;5068255;28;20048;-72
2022/05/14 03:25:41;;;;;;;15.32;5.03;;;;;;;;;;5068932;28;20119;-72
2022/05/14 03:28:08;;;;;;;19.92;5.50;;;;;;;;;;5069261;28;20044;-72
2022/05/14 03:30:34;;;;;;;18.20;6.38;;;;;;;;;;5065841;28;20045;-72
2022/05/14 03:33:00;;;;;;;18.42;5.53;;;;;;;;;;5065378;28;20036;-72
2022/05/14 03:35:26;;;;;;;20.73;5.85;;;;;;;;;;5065674;28;20132;-72
2022/05/14 03:37:52;;;;;;;18.55;5.80;;;;;;;;;;5063787;28;20033;-71
2022/05/14 03:40:18;;;;;;;19.70;6.28;;;;;;;;;;5064883;28;20051;-71
2022/05/14 03:42:45;;;;;;;17.25;5.60;;;;;;;;;;5065812;28;20071;-71
2022/05/14 03:45:11;;;;;;;21.50;5.75;;;;;;;;;;5064751;28;20396;-71
2022/05/14 03:47:37;;;;;;;16.40;5.93;;;;;;;;;;5064411;28;20041;-72
2022/05/14 03:50:04;;;;;;;20.42;6.85;;;;;;;;;;5062241;28;20064;-72
2022/05/14 03:52:30;;;;;;;17.92;6.45;;;;;;;;;;5048665;28;20569;-71
2022/05/14 03:54:56;;;;;;;20.10;6.95;;;;;;;;;;5067803;28;20062;-71
2022/05/14 03:57:22;;;;;;;22.95;6.45;;;;;;;;;;5067923;28;20069;-71
2022/05/14 03:59:48;;;;;;;23.60;6.80;;;;;;;;;;5050553;28;20694;-72
2022/05/14 04:02:14;;;;;;;25.27;7.00;;;;;;;;;;5065845;28;20577;-72
2022/05/14 04:04:40;;;;;;;18.80;6.95;;;;;;;;;;5049544;28;20049;-72
2022/05/14 04:07:06;;;;;;;20.88;7.65;;;;;;;;;;5051021;28;20056;-72
2022/05/14 04:09:32;;;;;;;24.95;7.93;;;;;;;;;;5062029;28;20052;-72
2022/05/14 04:11:58;;;;;;;22.50;7.30;;;;;;;;;;5055910;28;20045;-72
2022/05/14 04:14:24;;;;;;;26.23;7.82;;;;;;;;;;5045982;28;20047;-72
2022/05/14 04:16:50;;;;;;;21.55;6.60;;;;;;;;;;5058804;28;20678;-72
2022/05/14 04:19:19;;;;;;;24.15;7.47;;;;;;;;;;5062676;28;20071;-71
2022/05/14 04:21:45;;;;;;;26.67;7.70;;;;;;;;;;5063901;28;20049;-72
2022/05/14 04:24:11;;;;;;;27.42;7.63;;;;;;;;;;5055148;28;20048;-71
2022/05/14 04:26:38;;;;;;;22.83;7.78;;;;;;;;;;5052308;28;20084;-72
2022/05/14 04:29:04;;;;;;;21.15;7.72;;;;;;;;;;5061470;28;20048;-72
2022/05/14 04:31:31;;;;;;;27.73;7.70;;;;;;;;;;5065094;28;20048;-72
2022/05/14 04:33:57;;;;;;;26.85;7.65;;;;;;;;;;5044221;28;20140;-72
2022/05/14 04:36:23;;;;;;;19.85;7.63;;;;;;;;;;5043802;28;20048;-71
2022/05/14 04:38:50;;;;;;;22.08;7.60;;;;;;;;;;5065696;28;20045;-71
2022/05/14 04:41:16;;;;;;;21.83;7.75;;;;;;;;;;5049976;28;20080;-71
2022/05/14 04:43:42;;;;;;;24.90;7.63;;;;;;;;;;5067671;28;20045;-71
2022/05/14 04:46:08;;;;;;;21.10;7.75;;;;;;;;;;5061112;28;20122;-72
2022/05/14 04:48:35;;;;;;;22.83;7.93;;;;;;;;;;5065812;28;20119;-71
2022/05/14 04:51:01;;;;;;;23.10;7.78;;;;;;;;;;5063769;28;20117;-72
2022/05/14 04:53:27;;;;;;;23.65;7.25;;;;;;;;;;5035085;28;20056;-72
2022/05/14 04:55:53;;;;;;;25.90;8.40;;;;;;;;;;5047229;28;20376;-71
2022/05/14 04:58:20;;;;;;;27.25;8.43;;;;;;;;;;5033975;28;20040;-72
2022/05/14 05:00:46;;;;;;;26.08;9.32;;;;;;;;;;5065473;28;20503;-72
2022/05/14 05:03:19;;;;;;;29.55;8.35;;;;;;;;;;5044928;28;20045;-73
2022/05/14 05:05:46;;;;;;;19.35;8.00;;;;;;;;;;5063360;28;20055;-71
2022/05/14 05:08:12;;;;;;;27.70;8.90;;;;;;;;;;5039506;28;20044;-72
2022/05/14 05:10:39;;;;;;;25.63;8.90;;;;;;;;;;5052423;28;20037;-71
2022/05/14 05:13:09;;;;;;;26.92;8.13;;;;;;;;;;5063094;28;20503;-72
2022/05/14 05:15:34;;;;;;;22.92;8.07;;;;;;;;;;5062127;28;20475;-72
2022/05/14 05:18:01;;;;;;;24.25;8.00;;;;;;;;;;5058941;28;20049;-73
2022/05/14 05:20:27;;;;;;;24.27;8.23;;;;;;;;;;5056727;28;20043;-70
2022/05/14 05:22:53;;;;;;;23.50;8.38;;;;;;;;;;5062894;28;20626;-71
2022/05/14 05:25:19;;;;;;;21.45;8.10;;;;;;;;;;5062607;28;20041;-72
2022/05/14 05:27:45;;;;;;;22.23;8.27;;;;;;;;;;5061611;28;20105;-72
2022/05/14 05:30:11;;;;;;;27.65;9.00;;;;;;;;;;5062991;28;20131;-72
2022/05/14 05:32:37;;;;;;;24.75;8.40;;;;;;;;;;5061773;28;20051;-72
2022/05/14 05:35:04;;;;;;;24.38;8.60;;;;;;;;;;5058797;28;20045;-72
2022/05/14 05:37:30;;;;;;;26.40;8.55;;;;;;;;;;5059453;28;20815;-71
2022/05/14 05:39:56;;;;;;;22.90;8.25;;;;;;;;;;5054070;28;20044;-72
2022/05/14 05:42:22;;;;;;;22.75;8.13;;;;;;;;;;5059792;28;20137;-72
2022/05/14 05:44:48;;;;;;;21.13;7.30;;;;;;;;;;5050523;28;20088;-72
2022/05/14 05:47:14;;;;;;;25.25;7.57;;;;;;;;;;5059184;28;20033;-72
2022/05/14 05:49:42;;;;;;;20.35;6.93;;;;;;;;;;5058990;28;20151;-72
2022/05/14 05:52:09;;;;;;;25.17;7.57;;;;;;;;;;5039435;28;20049;-72
2022/05/14 05:57:28;;;;;;;24.10;6.97;;;;;;;;;;5061171;28;20439;-74
2022/05/14 05:59:54;;;;;;;23.88;7.15;;;;;;;;;;5046406;28;20041;-73
2022/05/14 06:02:21;;;;;;;18.95;6.40;;;;;;;;;;5056251;28;20056;-73
2022/05/14 06:04:47;;;;;;;23.63;6.88;;;;;;;;;;5041640;28;20060;-72
2022/05/14 06:07:13;;;;;;;18.55;6.50;;;;;;;;;;5057588;28;20068;-73
2022/05/14 06:09:39;;;;;;;21.38;6.28;;;;;;;;;;5058508;28;20413;-73
2022/05/14 06:12:06;;;;;;;25.05;7.00;;;;;;;;;;5046511;28;20399;-73
2022/05/14 06:14:33;;;;;;;23.73;6.47;;;;;;;;;;5058302;28;20041;-73
2022/05/14 06:16:59;;;;;;;22.92;6.85;;;;;;;;;;5049670;28;20075;-72
2022/05/14 06:19:25;;;;;;;21.38;6.90;;;;;;;;;;5060286;28;20052;-73
2022/05/14 06:21:51;;;;;;;21.35;6.63;;;;;;;;;;5058790;28;20052;-74
2022/05/14 06:24:17;;;;;;;21.42;6.85;;;;;;;;;;5059255;28;20401;-73
2022/05/14 06:26:43;;;;;;;20.05;6.03;;;;;;;;;;5058382;28;20120;-73
2022/05/14 06:29:09;;;;;;;21.90;6.15;;;;;;;;;;5058023;28;20064;-73
2022/05/14 06:31:36;;;;;;;24.20;6.28;;;;;;;;;;5053599;28;20445;-73
2022/05/14 06:34:02;;;;;;;17.90;5.85;;;;;;;;;;5052995;28;20041;-73
2022/05/14 06:36:28;;;;;;;21.05;6.10;;;;;;;;;;5055600;28;20059;-73
2022/05/14 06:38:54;;;;;;;22.55;6.47;;;;;;;;;;5050720;28;20075;-73
2022/05/14 06:41:20;;;;;;;21.15;6.03;;;;;;;;;;5064933;28;20041;-74
2022/05/14 06:43:46;;;;;;;23.02;6.38;;;;;;;;;;5066459;28;20049;-74
2022/05/14 06:46:13;;;;;;;20.73;5.68;;;;;;;;;;5060780;28;20041;-74
2022/05/14 06:48:39;;;;;;;23.83;6.35;;;;;;;;;;5073875;28;20021;-74
2022/05/14 06:51:06;;;;;;;20.50;6.00;;;;;;;;;;5074141;28;20071;-73
2022/05/14 06:53:34;;;;;;;22.70;5.63;;;;;;;;;;5057262;28;20048;-73
2022/05/14 06:56:01;;;;;;;20.70;5.63;;;;;;;;;;5058121;28;20072;-73
2022/05/14 06:58:29;;;;;;;17.98;4.80;;;;;;;;;;5074575;28;20039;-74
2022/05/14 07:00:55;;;;;;;18.10;5.03;;;;;;;;;;5075344;28;20045;-73
2022/05/14 07:08:52;;;;;;;19.55;5.28;;;;;;;;;;5051114;28;20131;-73
2022/05/14 07:11:18;;;;;;;18.13;5.20;;;;;;;;;;5070619;28;20048;-74
2022/05/14 07:13:44;;;;;;;20.88;5.00;;;;;;;;;;5056833;28;20083;-74
2022/05/14 07:16:10;;;;;;;18.25;5.10;;;;;;;;;;5070377;28;20057;-74
2022/05/14 07:18:36;;;;;;;18.83;5.43;;;;;;;;;;5065802;28;20042;-74
2022/05/14 07:21:02;;;;;;;19.45;5.00;;;;;;;;;;5050564;28;20561;-74
2022/05/14 07:23:29;;;;;;;16.98;4.78;;;;;;;;;;5056352;28;20044;-74
2022/05/14 07:25:55;;;;;;;16.92;4.68;;;;;;;;;;5071770;28;20103;-74
2022/05/14 07:28:21;;;;;;;15.95;4.65;;;;;;;;;;5041482;28;20044;-74
2022/05/14 07:30:47;;;;;;;16.63;4.78;;;;;;;;;;5060173;28;20053;-73
2022/05/14 07:33:13;;;;;;;16.33;4.85;;;;;;;;;;5050750;28;20072;-73
2022/05/14 07:35:39;;;;;;;20.38;4.72;;;;;;;;;;5048218;28;20052;-74
2022/05/14 07:38:06;;;;;;;20.33;5.22;;;;;;;;;;5066850;28;20064;-74
2022/05/14 07:40:34;;;;;;;17.88;5.13;;;;;;;;;;5066061;28;20076;-74
2022/05/14 07:43:02;;;;;;;18.70;5.30;;;;;;;;;;5063296;28;20045;-74
2022/05/14 07:45:32;;;;;;;19.02;4.60;;;;;;;;;;5064626;28;20048;-75
2022/05/14 07:47:58;;;;;;;17.03;4.63;;;;;;;;;;5060715;28;20147;-74
2022/05/14 07:50:25;;;;;;;15.98;4.88;;;;;;;;;;5051478;28;20311;-74
2022/05/14 07:52:52;;;;;;;18.98;5.03;;;;;;;;;;5063945;28;20052;-74
2022/05/14 07:55:18;;;;;;;18.20;5.10;;;;;;;;;;5055702;28;20363;-74
2022/05/14 07:57:44;;;;;;;17.15;4.65;;;;;;;;;;5057903;28;20047;-74
2022/05/14 08:00:11;;;;;;;18.90;4.70;;;;;;;;;;5030680;28;20051;-73
2022/05/14 08:02:39;;;;;;;17.35;4.60;;;;;;;;;;5049563;28;20098;-74
2022/05/14 08:05:08;;;;;;;17.58;5.00;;;;;;;;;;5042080;28;20406;-74
2022/05/14 08:07:34;;;;;;;17.73;5.05;;;;;;;;;;5048765;28;20056;-74
2022/05/14 08:10:00;;;;;;;20.35;5.25;;;;;;;;;;5050600;28;20067;-74
2022/05/14 08:12:26;;;;;;;16.20;4.47;;;;;;;;;;5037540;28;20045;-73
2022/05/14 08:14:52;;;;;;;19.73;5.25;;;;;;;;;;5054385;28;20056;-73
2022/05/14 08:17:18;;;;;;;18.30;4.90;;;;;;;;;;5055729;28;20055;-73
2022/05/14 08:19:44;;;;;;;22.00;5.55;;;;;;;;;;5055797;28;20478;-73
2022/05/14 08:24:55;;;;;;;19.38;4.93;;;;;;;;;;5050293;28;20049;-72
2022/05/14 08:27:21;;;;;;;17.58;4.82;;;;;;;;;;5055842;28;20084;-73
2022/05/14 08:29:48;;;;;;;18.80;4.88;;;;;;;;;;5053401;28;20420;-74
2022/05/14 08:32:14;;;;;;;19.90;4.63;;;;;;;;;;5055722;28;20048;-74
2022/05/14 08:34:40;;;;;;;20.55;5.10;;;;;;;;;;5055833;28;20450;-73
2022/05/14 08:37:07;;;;;;;19.85;5.35;;;;;;;;;;5055316;28;20045;-73
2022/05/14 08:39:33;;;;;;;15.27;4.78;;;;;;;;;;5037842;28;20045;-73
2022/05/14 08:42:00;;;;;;;16.98;4.63;;;;;;;;;;5056102;28;20060;-74
2022/05/14 08:44:33;;;;;;;19.27;5.43;;;;;;;;;;5055926;28;20106;-74
2022/05/14 08:47:03;;;;;;;22.05;5.18;;;;;;;;;;5051568;28;20045;-74
2022/05/14 08:49:34;;;;;;;19.73;5.33;;;;;;;;;;5052630;28;20117;-74
2022/05/14 08:52:01;;;;;;;26.92;5.43;;;;;;;;;;5048353;28;20045;-74
2022/05/14 08:54:27;;;;;;;22.42;5.82;;;;;;;;;;5052658;28;20104;-73
2022/05/14 08:57:13;;;;;;;18.52;4.75;;;;;;;;;;5035708;28;20087;-74
2022/05/14 08:59:42;;;;;;;21.23;5.18;;;;;;;;;;5054203;28;20037;-74
2022/05/14 09:02:13;;;;;;;17.77;4.88;;;;;;;;;;5053554;28;20049;-75
2022/05/14 09:04:39;;;;;;;19.17;5.15;;;;;;;;;;5053828;28;20068;-74
2022/05/14 09:07:06;;;;;;;21.38;5.15;;;;;;;;;;5054083;28;20052;-74
2022/05/14 09:09:32;;;;;;;18.13;4.90;;;;;;;;;;5047612;28;20045;-75
2022/05/14 09:12:00;;;;;;;18.38;4.78;;;;;;;;;;5052868;28;20045;-75
2022/05/14 09:14:27;;;;;;;18.52;5.05;;;;;;;;;;5037720;28;20041;-74
2022/05/14 09:17:01;;;;;;;17.45;4.95;;;;;;;;;;5050788;28;20077;-74
2022/05/14 09:19:32;;;;;;;17.77;4.80;;;;;;;;;;5031908;28;20049;-75
2022/05/14 09:21:58;;;;;;;;;;;;;;;;;;5049557;28;20049;-75
2022/05/14 09:24:28;;;;;;;19.20;4.60;;;;;;;;;;5045904;28;19921;-74
2022/05/14 09:26:56;;;;;;;19.45;4.70;;;;;;;;;;5046071;28;20053;-74
2022/05/14 09:29:28;;;;;;;18.75;5.35;;;;;;;;;;5051643;28;20068;-75
2022/05/14 09:31:58;;;;;;;19.55;4.82;;;;;;;;;;5036011;28;20122;-74
2022/05/14 09:34:25;;;;;;;21.35;5.15;;;;;;;;;;5053609;28;20041;-76
2022/05/14 09:36:51;;;;;;;42.83;6.95;;;;;;;;;;5058007;28;20495;-75
2022/05/14 09:39:19;;;;;;;18.70;5.35;;;;;;;;;;5035532;28;20048;-76
2022/05/14 09:41:52;;;;;;;17.63;5.05;;;;;;;;;;5057968;28;20057;-75
2022/05/14 09:44:22;;;;;;;18.42;4.75;;;;;;;;;;5063782;28;20052;-75
2022/05/14 09:46:49;;;;;;;19.45;5.25;;;;;;;;;;5043893;28;20052;-75
2022/05/14 09:49:25;;;;;;;22.30;4.80;;;;;;;;;;5064652;28;20045;-75
2022/05/14 09:51:56;;;;;;;17.13;4.90;;;;;;;;;;5078668;28;20051;-76
2022/05/14 09:54:23;;;;;;;;;;;;;;;;;;5042943;28;20037;-76
2022/05/14 09:57:06;;;;;;;17.60;5.03;;;;;;;;;;5058310;28;19939;-76
2022/05/14 09:59:35;;;;;;;21.80;5.25;;;;;;;;;;5028730;28;20041;-72
2022/05/14 10:02:23;;;;;;;21.25;5.18;;;;;;;;;;5047907;28;20119;-73
2022/05/14 10:04:55;;;;;;;17.25;4.63;;;;;;;;;;5042173;28;20041;-73
2022/05/14 10:07:34;;;;;;;18.20;5.28;;;;;;;;;;5023421;28;20419;-72
2022/05/14 10:10:00;;;;;;;17.52;5.05;;;;;;;;;;5057626;28;20045;-73
2022/05/14 10:12:38;;;;;;;22.42;4.97;;;;;;;;;;5059862;28;20055;-73
2022/05/14 10:15:11;;;;;;;17.17;4.68;;;;;;;;;;5050628;28;20046;-73
2022/05/14 10:17:37;;;;;;;15.85;4.45;;;;;;;;;;5041701;28;20063;-73
2022/05/14 10:20:06;;;;;;;17.00;4.85;;;;;;;;;;5023255;28;20091;-72
2022/05/14 10:28:55;;;;;;;19.83;5.28;;;;;;;;;;5040999;28;20044;-72
2022/05/14 10:31:32;;;;;;;14.93;4.32;;;;;;;;;;5056021;28;20049;-72
2022/05/14 10:34:02;;;;;;;17.70;4.93;;;;;;;;;;5039821;28;20060;-73
2022/05/14 10:36:31;;;;;;;17.08;4.88;;;;;;;;;;5038104;28;20053;-71
2022/05/14 10:39:02;;;;;;;22.52;5.03;;;;;;;;;;5056711;28;20068;-72
2022/05/14 10:41:42;;;;;;;16.70;4.85;;;;;;;;;;5038769;28;20510;-73
2022/05/14 10:44:33;;;;;;;20.00;4.83;;;;;;;;;;5052850;28;20097;-73
2022/05/14 10:47:03;;;;;;;14.27;4.43;;;;;;;;;;5037951;28;20316;-73
2022/05/14 10:49:35;;;;;;;19.58;4.95;;;;;;;;;;5053849;28;20495;-72
2022/05/14 10:52:01;;;;;;;19.05;4.85;;;;;;;;;;5057265;28;20041;-72
2022/05/14 10:54:27;;;;;;;16.02;4.45;;;;;;;;;;5057587;28;20049;-72
2022/05/14 10:56:59;;;;;;;15.63;4.75;;;;;;;;;;5055917;28;20033;-72
2022/05/14 10:59:32;;;;;;;18.38;4.85;;;;;;;;;;5055718;28;20061;-72
2022/05/14 11:01:58;;;;;;;19.00;5.55;;;;;;;;;;5057666;28;20045;-73
2022/05/14 11:04:29;;;;;;;20.42;4.80;;;;;;;;;;5038765;28;20441;-73
2022/05/14 11:07:00;;;;;;;18.98;4.70;;;;;;;;;;5053439;28;20047;-72
2022/05/14 11:09:49;;;;;;;16.67;5.03;;;;;;;;;;5050441;28;20072;-72
2022/05/14 11:12:29;;;;;;;22.35;5.03;;;;;;;;;;5027099;28;20064;-71
2022/05/14 11:14:57;;;;;;;16.08;4.65;;;;;;;;;;5052756;28;20048;-71
2022/05/14 11:17:38;;;;;;;20.23;5.38;;;;;;;;;;5052742;28;20555;-71
2022/05/14 11:20:12;;;;;;;19.45;4.90;;;;;;;;;;5034903;28;20049;-71
2022/05/14 11:22:41;;;;;;;20.45;4.85;;;;;;;;;;5053736;28;20044;-73
2022/05/14 11:25:19;;;;;;;17.25;4.50;;;;;;;;;;5050594;28;20053;-72
2022/05/14 11:27:58;;;;;;;19.23;5.20;;;;;;;;;;5049380;28;20053;-72
2022/05/14 11:30:44;;;;;;;20.50;4.97;;;;;;;;;;5042635;28;20045;-69
2022/05/14 11:33:22;;;;;;;20.17;5.28;;;;;;;;;;5050786;28;20116;-72
2022/05/14 11:35:49;;;;;;;15.88;4.80;;;;;;;;;;5052715;28;20455;-71
2022/05/14 11:38:17;;;;;;;18.83;4.80;;;;;;;;;;5031374;28;20442;-71
2022/05/14 11:40:43;;;;;;;19.05;4.50;;;;;;;;;;5040685;28;20531;-71
2022/05/14 11:43:11;;;;;;;18.13;4.72;;;;;;;;;;5041933;28;20577;-73
2022/05/14 11:45:40;;;;;;;18.55;4.70;;;;;;;;;;5033357;28;20111;-72
2022/05/14 11:48:08;;;;;;;15.95;4.45;;;;;;;;;;5041989;28;20086;-71
2022/05/14 11:50:41;;;;;;;16.35;4.25;;;;;;;;;;5054016;28;20367;-71
2022/05/14 11:53:07;;;;;;;15.07;4.78;;;;;;;;;;5053945;28;20478;-71
2022/05/14 11:55:37;;;;;;;16.75;4.75;;;;;;;;;;5047730;28;20083;-72
2022/05/14 11:58:22;;;;;;;16.65;4.55;;;;;;;;;;5052758;28;20475;-73
2022/05/14 12:00:49;;;;;;;19.15;4.82;;;;;;;;;;5052377;28;20053;-74
2022/05/14 12:03:21;;;;;;;16.10;4.38;;;;;;;;;;5032325;28;20041;-74
2022/05/14 12:05:47;;;;;;;19.52;5.07;;;;;;;;;;5034736;28;20124;-73
2022/05/14 12:08:13;;;;;;;17.40;4.35;;;;;;;;;;5051201;28;20057;-76
2022/05/14 12:10:52;;;;;;;17.20;4.78;;;;;;;;;;5050075;28;20099;-74
2022/05/14 12:13:24;;;;;;;21.42;5.53;;;;;;;;;;5025370;28;20396;-73
2022/05/14 12:15:54;;;;;;;22.30;5.07;;;;;;;;;;5051484;28;20098;-74
2022/05/14 12:18:21;;;;;;;18.25;4.60;;;;;;;;;;5053774;28;20056;-73
2022/05/14 12:20:56;;;;;;;18.45;6.03;;;;;;;;;;5052929;28;20417;-74
2022/05/14 12:23:32;;;;;;;19.13;5.05;;;;;;;;;;5050501;28;20048;-74
2022/05/14 12:25:58;;;;;;;20.77;5.57;;;;;;;;;;5047725;28;20073;-74
2022/05/14 12:28:28;;;;;;;18.40;4.55;;;;;;;;;;5017961;28;20044;-73
2022/05/14 12:33:41;;;;;;;18.08;4.78;;;;;;;;;;5051781;28;20049;-72
2022/05/14 12:36:10;;;;;;;15.55;4.30;;;;;;;;;;5038194;28;20036;-72
2022/05/14 12:38:37;;;;;;;20.27;4.70;;;;;;;;;;5035844;28;20056;-72
2022/05/14 12:41:04;;;;;;;19.60;4.97;;;;;;;;;;5053451;28;20466;-72
2022/05/14 12:43:30;;;;;;;16.80;4.75;;;;;;;;;;5054046;28;20179;-73
2022/05/14 12:46:01;;;;;;;19.08;5.10;;;;;;;;;;5053041;28;20041;-72
2022/05/14 12:48:27;;;;;;;;;;;;;;;;;;5041034;28;20044;-73
2022/05/14 12:50:55;;;;;;;18.35;5.30;;;;;;;;;;5047487;28;19960;-72
2022/05/14 12:53:21;;;;;;;15.80;5.05;;;;;;;;;;5048215;28;20033;-72
2022/05/14 12:55:49;;;;;;;19.58;4.70;;;;;;;;;;5047519;28;20053;-72
2022/05/14 12:58:16;;;;;;;17.08;4.72;;;;;;;;;;5053560;28;20052;-72
2022/05/14 13:00:45;;;;;;;19.02;5.30;;;;;;;;;;5033485;28;20099;-71
2022/05/14 13:03:14;;;;;;;19.38;5.47;;;;;;;;;;5052763;28;20049;-73
2022/05/14 13:05:44;;;;;;;16.58;4.43;;;;;;;;;;5051186;28;20037;-72
2022/05/14 13:08:21;;;;;;;21.23;5.47;;;;;;;;;;5052210;28;20099;-72
2022/05/14 13:10:55;;;;;;;19.35;4.95;;;;;;;;;;5050429;28;20085;-72
2022/05/14 13:13:32;;;;;;;21.23;5.00;;;;;;;;;;5044674;28;20880;-71
2022/05/14 13:15:58;;;;;;;19.90;5.55;;;;;;;;;;5034848;28;20523;-71
2022/05/14 13:18:24;;;;;;;18.48;5.22;;;;;;;;;;5050228;28;20490;-72
2022/05/14 13:21:04;;;;;;;19.85;5.20;;;;;;;;;;5036160;28;20114;-72
2022/05/14 13:23:30;;;;;;;19.02;4.63;;;;;;;;;;5033172;28;20038;-72
2022/05/14 13:26:23;;;;;;;21.23;5.15;;;;;;;;;;5033147;28;20128;-72
2022/05/14 13:28:49;;;;;;;19.33;5.07;;;;;;;;;;5031605;28;20388;-71
2022/05/14 13:31:20;;;;;;;21.70;4.88;;;;;;;;;;5047301;28;20049;-71
2022/05/14 13:33:56;;;;;;;18.80;5.15;;;;;;;;;;5049565;28;20503;-71
2022/05/14 13:39:12;;;;;;;16.17;4.50;;;;;;;;;;5044056;28;20084;-72
2022/05/14 13:41:41;;;;;;;17.75;4.63;;;;;;;;;;5013707;28;20050;-71
2022/05/14 13:44:08;;;;;;;17.27;4.95;;;;;;;;;;5035541;28;20049;-71
2022/05/14 13:46:43;;;;;;;18.20;5.13;;;;;;;;;;5042196;28;20042;-71
2022/05/14 13:49:16;;;;;;;20.00;4.85;;;;;;;;;;5051821;28;20399;-71
2022/05/14 13:51:43;;;;;;;20.23;5.28;;;;;;;;;;5034859;28;20037;-71
2022/05/14 13:54:18;;;;;;;22.80;5.45;;;;;;;;;;5051256;28;20042;-71
2022/05/14 13:56:47;;;;;;;18.42;5.28;;;;;;;;;;5047021;28;20053;-72
2022/05/14 13:59:33;;;;;;;17.67;4.88;;;;;;;;;;5051608;28;20049;-72
2022/05/14 14:02:18;;;;;;;20.45;4.68;;;;;;;;;;5050659;28;20048;-72
2022/05/14 14:04:44;;;;;;;20.55;4.95;;;;;;;;;;5052157;28;20241;-71
2022/05/14 14:07:11;;;;;;;18.30;4.78;;;;;;;;;;5051633;28;20518;-71
2022/05/14 14:09:38;;;;;;;18.63;5.32;;;;;;;;;;5044932;28;20041;-70
2022/05/14 14:12:04;;;;;;;18.45;4.80;;;;;;;;;;5052618;28;20045;-72
2022/05/14 14:14:31;;;;;;;19.02;5.20;;;;;;;;;;5052293;28;20045;-71
2022/05/14 14:16:57;;;;;;;17.70;4.65;;;;;;;;;;5046520;28;20049;-71
2022/05/14 14:19:24;;;;;;;20.85;4.80;;;;;;;;;;5032804;28;20065;-71
2022/05/14 14:21:50;;;;;;;17.92;4.35;;;;;;;;;;5032323;28;20049;-72
2022/05/14 14:24:17;;;;;;;17.25;4.53;;;;;;;;;;5041275;28;20049;-72
2022/05/14 14:26:44;;;;;;;20.50;5.10;;;;;;;;;;5052769;28;20102;-72
2022/05/14 14:29:11;;;;;;;16.80;4.65;;;;;;;;;;5034469;28;20037;-72
2022/05/14 14:31:37;;;;;;;16.63;5.03;;;;;;;;;;5050872;28;20045;-73
2022/05/14 14:34:03;;;;;;;20.52;5.55;;;;;;;;;;5036453;28;20083;-72
2022/05/14 14:36:29;;;;;;;18.15;4.93;;;;;;;;;;5055912;28;20487;-72
2022/05/14 14:38:55;;;;;;;17.27;5.00;;;;;;;;;;5037318;28;20087;-72
2022/05/14 14:41:22;;;;;;;22.42;5.60;;;;;;;;;;5049641;28;20526;-73
2022/05/14 14:43:49;;;;;;;20.80;4.95;;;;;;;;;;5049939;28;20044;-73
2022/05/14 14:46:16;;;;;;;19.42;5.30;;;;;;;;;;5049345;28;20057;-72
2022/05/14 14:48:44;;;;;;;19.23;4.70;;;;;;;;;;5056190;28;20116;-72
2022/05/14 14:51:11;;;;;;;36.10;5.97;;;;;;;;;;5055297;28;20041;-71
2022/05/14 14:53:38;;;;;;;20.80;4.72;;;;;;;;;;5047561;28;20130;-71
2022/05/14 14:56:05;;;;;;;19.73;5.30;;;;;;;;;;5053867;28;20064;-72
2022/05/14 14:58:31;;;;;;;19.13;5.13;;;;;;;;;;5054121;28;20041;-72
2022/05/14 15:00:57;;;;;;;17.58;5.00;;;;;;;;;;5055479;28;20048;-71
2022/05/14 15:03:29;;;;;;;19.65;5.47;;;;;;;;;;5055359;28;20033;-72
2022/05/14 15:05:57;;;;;;;23.38;5.28;;;;;;;;;;5034852;28;20102;-72
2022/05/14 15:08:25;;;;;;;21.67;5.28;;;;;;;;;;5037344;28;20392;-72